Terminal Aerodrome Forecast
Issued by NWS Cleveland, OH

Home | Current Version | Previous Version | Text Only | Print | Product List | Glossary On
Versions: 1 2 3 4 5 6 7 8 9 10 11 12 13 14 15 16 17 18 19 20 21 22
000
FTUS41 KCLE 230600 AAA
TAFERI
TAF AMD
KERI 230610Z 2306/2406 09002KT 5SM BR SCT006
     FM230800 11004KT 3SM BR BKN006
     FM231500 04008KT P6SM BKN025
     FM231700 03010KT P6SM SCT035
     FM240500 12005KT 6SM BR SCT040=

USA.gov is the U.S. government's official web portal to all federal, state and local government web resources and services.